Tifton, Georgia
Current Conditions -  °F | °C
As of 2:15 PM on Thursday 18 Dec 2014 (Local Time) from KTMA Reporting Station
Clear Clear  
Wind Chill: 62°   Ceiling: Unl
Heat Index: 62°   Visibility: 10mi
Dew Point: 30°   Wind: 0mph
Humidity: 30%   Direction: NA
Pressure: 30.1"   Gusts: NA
Location:  31.45°N, 83.51°W
Report Text: KTMA 181915Z AUTO 00000KT 10SM CLR 17/M01 A3010 RMK AO2 T01671011
Loading
Personal Weather Stations






























Interactive Weather Map New forecast layout! Learn more

10-Day Weather Forecast

Advertisements
Track Severe Weather on mobile